Time;durP1;ratioP1;P1;durP2;ratioP2;P2;SDS_P1;SDS_P2;PMS_P1;PMS_P2;Temp;Humidity;BMP_temperature;BMP_pressure;BME280_temperature;BME280_humidity;BME280_pressure;Samples;Min_cycle;Max_cycle;Signal;HPM_P1;HPM_P2
2022/01/22 00:09:11;;;;;;;5.63;1.52;;;;;;;14.24;64.66;102684.88;21002438;28;20044;-57
2022/01/22 00:19:14;;;;;;;3.70;0.80;;;;;;;14.31;65.23;102693.50;21055943;28;20067;-57
2022/01/22 00:29:16;;;;;;;4.18;0.95;;;;;;;13.80;64.80;102602.88;21084310;28;20040;-57
2022/01/22 00:39:18;;;;;;;3.63;1.00;;;;;;;14.28;64.72;102678.44;21082113;28;20052;-57
2022/01/22 00:49:20;;;;;;;3.67;0.98;;;;;;;14.13;64.70;102650.53;21064837;28;20048;-57
2022/01/22 00:59:22;;;;;;;3.03;1.00;;;;;;;14.33;64.74;102695.19;21083192;28;20062;-57
2022/01/22 01:09:24;;;;;;;2.47;0.65;;;;;;;14.21;64.81;102671.63;21080907;28;20386;-57
2022/01/22 01:40:08;;;;;;;1.55;0.60;;;;;;;14.34;65.01;102696.91;21060591;28;20067;-57
2022/01/22 01:50:10;;;;;;;3.00;0.80;;;;;;;14.42;64.71;102706.41;21060026;28;20102;-57
2022/01/22 02:00:16;;;;;;;2.55;0.68;;;;;;;13.82;64.79;102617.06;21058979;28;20551;-57
2022/01/22 02:10:22;;;;;;;2.35;0.70;;;;;;;13.34;65.19;102541.50;21058225;28;20114;-57
2022/01/22 02:30:48;;;;;;;1.75;0.73;;;;;;;14.48;65.97;102746.34;21056873;28;20389;-57
2022/01/22 02:41:13;;;;;;;7.80;0.85;;;;;;;14.43;65.55;102726.91;21072977;28;20047;-57
2022/01/22 02:51:14;;;;;;;1.40;0.77;;;;;;;14.47;65.91;102736.56;21055545;28;20398;-57
2022/01/22 03:01:18;;;;;;;1.95;0.70;;;;;;;14.47;66.10;102769.59;21054584;28;20076;-57
2022/01/22 03:11:25;;;;;;;1.75;0.60;;;;;;;14.43;65.78;102746.56;21054457;28;20100;-57
2022/01/22 03:21:40;;;;;;;1.00;0.63;;;;;;;14.45;65.95;102751.84;21053888;28;20091;-57
2022/01/22 03:31:43;;;;;;;;;;;;;;;14.47;65.65;102752.63;21063738;28;20052;-57
2022/01/22 03:41:47;;;;;;;1.08;0.70;;;;;;;13.91;65.94;102653.28;21054044;28;19919;-57
2022/01/22 03:51:49;;;;;;;2.72;0.45;;;;;;;14.47;66.10;102755.31;21052961;28;20076;-57
2022/01/22 04:12:02;;;;;;;5.30;0.70;;;;;;;14.34;65.56;102720.16;21067474;28;20044;-57
2022/01/22 04:32:28;;;;;;;1.88;0.50;;;;;;;14.43;65.76;102751.03;21066224;28;20048;-57
2022/01/22 04:42:32;;;;;;;2.40;0.50;;;;;;;14.44;65.63;102753.66;21065033;28;20474;-57
2022/01/22 04:52:43;;;;;;;2.38;0.70;;;;;;;14.39;65.32;102723.53;21082489;28;20631;-57
2022/01/22 05:02:47;;;;;;;1.23;0.40;;;;;;;14.75;65.07;102746.06;21063781;28;20036;-57
2022/01/22 05:13:15;;;;;;;2.10;0.80;;;;;;;14.35;64.78;102660.25;21077540;28;20080;-56
2022/01/22 05:23:21;;;;;;;2.15;0.60;;;;;;;14.72;65.39;102732.81;21061875;28;20044;-57
2022/01/22 05:43:49;;;;;;;1.90;0.67;;;;;;;14.95;65.06;102793.44;21078650;28;20545;-57
2022/01/22 05:54:29;;;;;;;1.95;0.52;;;;;;;15.01;64.11;102784.22;21076756;28;20443;-57
2022/01/22 06:04:14;;;;;;;1.67;0.35;;;;;;;14.81;63.26;102707.41;21057441;28;20055;-57
2022/01/22 06:14:15;;;;;;;1.92;0.40;;;;;;;14.89;62.69;102702.53;21057966;28;20109;-56
2022/01/22 06:24:21;;;;;;;1.50;0.40;;;;;;;15.44;61.98;102803.66;21073911;28;20085;-56
2022/01/22 06:34:25;;;;;;;0.87;0.53;;;;;;;15.46;62.77;102815.19;21024320;28;20044;-56
2022/01/22 06:44:32;;;;;;;0.93;0.40;;;;;;;15.50;62.20;102827.53;21055788;28;20040;-57
2022/01/22 06:54:53;;;;;;;1.40;0.40;;;;;;;15.48;62.45;102831.22;21073080;28;20040;-57
2022/01/22 07:04:56;;;;;;;1.33;0.40;;;;;;;15.44;61.91;102818.91;21054591;28;20794;-57
2022/01/22 07:15:33;;;;;;;0.60;0.30;;;;;;;15.43;62.09;102827.91;21045626;28;20052;-57
2022/01/22 07:25:44;;;;;;;2.13;0.45;;;;;;;15.54;61.67;102840.81;21053853;28;20540;-57
2022/01/22 07:35:57;;;;;;;3.13;0.30;;;;;;;15.54;61.28;102840.81;21053071;28;20046;-57
2022/01/22 07:46:00;;;;;;;3.05;0.38;;;;;;;15.11;62.61;102760.53;21053148;28;20032;-57
2022/01/22 07:56:05;;;;;;;2.92;0.40;;;;;;;15.57;63.13;102840.66;21052533;28;20040;-57
2022/01/22 08:06:07;;;;;;;2.60;0.40;;;;;;;14.97;64.74;102763.84;21052242;28;20044;-57
2022/01/22 08:16:35;;;;;;;3.22;0.30;;;;;;;15.55;64.80;102869.41;21075972;28;20382;-57
2022/01/22 08:26:43;;;;;;;2.05;0.55;;;;;;;15.54;64.92;102873.88;21067193;28;20044;-57
2022/01/22 08:36:57;;;;;;;1.33;0.25;;;;;;;15.52;65.51;102871.28;21066034;28;20495;-57
2022/01/22 08:47:17;;;;;;;0.95;0.30;;;;;;;15.27;63.67;102806.28;21082192;28;20044;-57
2022/01/22 08:57:20;;;;;;;0.52;0.32;;;;;;;15.64;62.85;102896.66;21081032;28;20047;-57
2022/01/22 09:07:35;;;;;;;1.83;0.47;;;;;;;15.65;64.17;102897.56;21063511;28;20406;-57
2022/01/22 09:17:56;;;;;;;1.80;0.57;;;;;;;15.66;63.55;102908.19;21079973;28;20079;-56
2022/01/22 09:27:59;;;;;;;1.40;0.40;;;;;;;15.61;63.22;102882.53;21061997;28;20048;-57
2022/01/22 09:38:02;;;;;;;1.52;0.40;;;;;;;15.66;63.23;102897.47;21061085;28;20044;-57
2022/01/22 09:48:27;;;;;;;6.95;0.55;;;;;;;15.84;63.27;102926.22;21026287;28;20056;-52
2022/01/22 09:58:50;;;;;;;3.60;0.90;;;;;;;15.83;62.08;102911.03;21076471;28;20577;-55
2022/01/22 10:09:25;;;;;;;2.43;0.73;;;;;;;15.95;63.05;102926.63;21077183;28;20127;-57
2022/01/22 10:19:47;;;;;;;4.68;0.60;;;;;;;15.52;62.54;102841.75;20986960;28;20115;-56
2022/01/22 10:30:19;;;;;;;1.98;0.63;;;;;;;15.58;60.96;102804.81;21058410;27;4871317;-85
2022/01/22 10:40:23;;;;;;;3.30;0.50;;;;;;;15.64;61.18;102808.06;21127344;28;20052;-87
2022/01/22 10:50:25;;;;;;;1.65;0.40;;;;;;;15.74;61.14;102858.66;21143629;28;20063;-81
2022/01/22 11:00:27;;;;;;;2.15;0.40;;;;;;;15.96;61.51;102901.50;21142743;28;20070;-81
2022/01/22 11:10:28;;;;;;;2.05;0.57;;;;;;;16.16;61.17;102934.56;21124089;28;20043;-81
2022/01/22 11:20:32;;;;;;;0.52;0.50;;;;;;;15.87;61.12;102893.81;21123317;28;20055;-81
2022/01/22 11:30:35;;;;;;;2.90;0.60;;;;;;;15.49;61.02;102828.50;21022492;28;20047;-82
2022/01/22 11:40:37;;;;;;;0.60;0.40;;;;;;;15.83;61.33;102887.75;21003806;28;20044;-80
2022/01/22 11:50:47;;;;;;;0.47;0.30;;;;;;;15.93;61.17;102905.19;20998196;28;20110;-83
2022/01/22 12:00:49;;;;;;;;;;;;;;;16.30;60.78;102939.28;20997578;28;20086;-80
2022/01/22 12:31:15;;;;;;;2.17;0.40;;;;;;;16.38;61.77;102920.94;21079516;28;20048;-82
2022/01/22 12:41:30;;;;;;;0.63;0.40;;;;;;;16.52;61.71;102947.13;21060343;28;20485;-80
2022/01/22 12:51:33;;;;;;;1.02;0.40;;;;;;;16.44;61.30;102933.22;21043740;28;20051;-79
2022/01/22 13:01:38;;;;;;;1.58;0.50;;;;;;;16.26;61.13;102892.84;21060049;28;20043;-80
2022/01/22 13:11:46;;;;;;;0.82;0.32;;;;;;;15.88;60.98;102828.44;21058957;28;20039;-79
2022/01/22 13:21:54;;;;;;;0.30;0.30;;;;;;;14.68;60.95;102642.72;21040908;28;20132;-79
2022/01/22 13:32:19;;;;;;;0.82;0.40;;;;;;;16.45;60.88;102941.19;21074756;28;20039;-80
2022/01/22 13:52:43;;;;;;;0.88;0.30;;;;;;;16.31;60.72;102928.44;21058446;28;20052;-80
2022/01/22 14:03:04;;;;;;;0.80;0.30;;;;;;;16.42;60.91;102938.66;21073242;28;20048;-79
2022/01/22 14:13:11;;;;;;;1.35;0.50;;;;;;;16.42;60.47;102941.34;21072081;28;20114;-79
2022/01/22 14:23:13;;;;;;;0.38;0.30;;;;;;;16.41;60.51;102936.91;21054072;28;20135;-80
2022/01/22 14:33:17;;;;;;;1.30;0.60;;;;;;;16.25;60.52;102917.97;21071420;28;20036;-80
2022/01/22 14:53:40;;;;;;;0.40;0.30;;;;;;;16.01;60.49;102867.22;21070840;28;20051;-79
2022/01/22 15:03:41;;;;;;;1.25;0.30;;;;;;;15.79;60.30;102844.03;21070292;28;20048;-80
2022/01/22 15:13:43;;;;;;;0.38;0.30;;;;;;;16.35;60.31;102946.19;21062254;28;20044;-80
2022/01/22 15:23:45;;;;;;;1.45;0.40;;;;;;;16.29;60.41;102951.81;21085439;28;20072;-80
2022/01/22 15:33:53;;;;;;;0.80;0.40;;;;;;;15.93;60.47;102874.78;21049774;28;20044;-81
2022/01/22 15:43:54;;;;;;;0.43;0.30;;;;;;;16.15;60.26;102916.72;21065516;28;20489;-81
2022/01/22 15:53:56;;;;;;;0.80;0.30;;;;;;;16.00;60.55;102924.56;21082699;28;20139;-81
2022/01/22 16:04:00;;;;;;;1.23;0.50;;;;;;;15.43;60.54;102835.97;21063935;28;20059;-81
2022/01/22 16:14:02;;;;;;;0.40;0.40;;;;;;;15.91;60.67;102931.25;21047573;28;20046;-81
2022/01/22 16:24:07;;;;;;;0.80;0.30;;;;;;;16.08;60.74;102967.19;21045642;28;20047;-82
2022/01/22 16:34:10;;;;;;;0.40;0.30;;;;;;;15.80;60.77;102944.31;21046472;28;20051;-81
2022/01/22 17:04:25;;;;;;;1.10;0.60;;;;;;;15.72;60.54;102917.78;21059214;28;20052;-81
2022/01/22 17:14:27;;;;;;;1.08;0.40;;;;;;;15.83;60.70;102946.84;21059228;28;20499;-81
2022/01/22 17:24:29;;;;;;;0.20;0.20;;;;;;;16.03;60.45;102978.16;21041123;28;20064;-81
2022/01/22 17:34:31;;;;;;;0.55;0.40;;;;;;;15.99;60.48;102981.06;21039716;28;20122;-80
2022/01/22 17:44:34;;;;;;;1.23;0.30;;;;;;;15.49;60.64;102892.03;21056206;28;20050;-81
2022/01/22 17:54:36;;;;;;;0.95;0.30;;;;;;;16.07;60.54;103001.25;21055739;28;20084;-79
2022/01/22 18:04:40;;;;;;;0.30;0.20;;;;;;;16.08;60.33;103021.81;21072791;28;20390;-81
2022/01/22 18:14:42;;;;;;;0.52;0.20;;;;;;;16.08;60.51;103008.38;21072135;28;20408;-81
2022/01/22 18:24:44;;;;;;;0.73;0.20;;;;;;;16.00;60.64;102989.06;21053553;28;20048;-81
2022/01/22 18:34:46;;;;;;;0.73;0.32;;;;;;;15.49;60.44;102903.66;21053818;28;20393;-81
2022/01/22 18:44:52;;;;;;;0.80;0.28;;;;;;;15.49;59.99;102919.75;21076843;28;20052;-79
2022/01/22 18:54:54;;;;;;;0.52;0.30;;;;;;;15.64;60.29;102936.09;21069445;28;20040;-79
2022/01/22 19:04:56;;;;;;;0.28;0.20;;;;;;;15.91;60.33;102979.59;21086615;28;20210;-78
2022/01/22 19:15:00;;;;;;;0.28;0.22;;;;;;;15.50;59.95;102934.94;21085901;28;20047;-79
2022/01/22 19:35:11;;;;;;;0.55;0.32;;;;;;;16.05;59.87;103013.88;21084242;28;20465;-78
2022/01/22 19:45:13;;;;;;;0.75;0.32;;;;;;;16.00;60.23;103004.28;21083628;28;20052;-78
2022/01/22 19:55:15;;;;;;;0.25;0.25;;;;;;;15.76;60.20;103002.66;21082040;28;20043;-78
2022/01/22 20:05:17;;;;;;;1.10;0.40;;;;;;;14.90;60.33;102862.50;21081975;28;20458;-78
2022/01/22 20:15:19;;;;;;;0.57;0.30;;;;;;;15.71;60.09;102998.44;21081300;28;20098;-79
2022/01/22 20:25:21;;;;;;;0.20;0.20;;;;;;;15.10;60.19;102901.84;21081020;28;20056;-78
2022/01/22 20:35:23;;;;;;;1.15;0.57;;;;;;;15.02;60.35;102915.59;21079808;28;20114;-78
2022/01/22 20:45:25;;;;;;;0.43;0.30;;;;;;;15.60;60.57;103009.66;21060749;28;20067;-79
2022/01/22 20:55:28;;;;;;;1.23;0.40;;;;;;;15.47;60.70;103010.22;21059858;28;20044;-79
2022/01/22 21:05:31;;;;;;;0.20;0.20;;;;;;;13.78;60.43;102762.69;21058371;28;20048;-79
2022/01/22 21:15:34;;;;;;;0.28;0.25;;;;;;;15.44;60.77;103026.44;21058446;28;20044;-79
2022/01/22 21:25:36;;;;;;;0.38;0.30;;;;;;;15.32;60.76;103029.69;21075646;28;20055;-78
2022/01/22 21:35:39;;;;;;;1.45;0.70;;;;;;;14.86;60.48;102968.16;21075069;28;20050;-78
2022/01/22 21:45:46;;;;;;;0.65;0.40;;;;;;;15.22;60.46;103038.13;21057228;28;20048;-78
2022/01/22 21:55:48;;;;;;;1.80;0.40;;;;;;;14.89;60.41;102995.72;21073653;28;20040;-78
2022/01/22 22:05:50;;;;;;;0.30;0.30;;;;;;;15.21;60.88;103055.16;21073354;28;20082;-78
2022/01/22 22:15:52;;;;;;;0.75;0.40;;;;;;;15.04;60.80;103063.06;21072334;28;20063;-78
2022/01/22 22:25:55;;;;;;;0.88;0.35;;;;;;;15.13;60.76;103078.78;21071741;28;20051;-78
2022/01/22 22:35:57;;;;;;;1.30;0.43;;;;;;;14.94;60.57;103057.22;21054397;28;20044;-78
2022/01/22 22:45:59;;;;;;;0.35;0.30;;;;;;;15.07;60.92;103057.59;21071187;28;20052;-78
2022/01/22 22:56:03;;;;;;;0.38;0.30;;;;;;;14.52;60.62;102970.41;21036383;28;20488;-79
2022/01/22 23:06:23;;;;;;;0.30;0.30;;;;;;;14.42;60.87;102936.88;21052550;28;20114;-79
2022/01/22 23:16:46;;;;;;;0.65;0.43;;;;;;;13.78;60.65;102851.94;21069843;28;20051;-78
2022/01/22 23:26:47;;;;;;;0.30;0.30;;;;;;;14.28;60.86;102945.47;21054988;28;20131;-78
2022/01/22 23:46:07;;;;;;;0.40;0.40;;;;;;;14.40;60.69;102992.34;21082201;28;20048;-78
2022/01/22 23:48:05;;;;;;;0.82;0.30;;;;;;;14.78;60.91;103067.69;21053312;28;20142;-78
2022/01/22 23:58:04;;;;;;;0.52;0.40;;;;;;;14.83;60.96;103097.88;21082153;28;20428;-78
